sensor_id;sensor_type;location;lat;lon;timestamp;pressure;altitude;pressure_sealevel;temperature;humidity
73457;BME280;61691;53.072;6.582;2023-11-21T00:02:21;100988.47;;;10.15;87.72
73457;BME280;61691;53.072;6.582;2023-11-21T00:04:48;100985.13;;;10.13;87.68
73457;BME280;61691;53.072;6.582;2023-11-21T00:07:15;100987.31;;;10.08;87.64
73457;BME280;61691;53.072;6.582;2023-11-21T00:09:42;100979.03;;;10.01;87.62
73457;BME280;61691;53.072;6.582;2023-11-21T00:12:09;100983.75;;;9.98;87.48
73457;BME280;61691;53.072;6.582;2023-11-21T00:14:37;100987.09;;;10.00;87.85
73457;BME280;61691;53.072;6.582;2023-11-21T00:17:05;100988.09;;;9.99;87.47
73457;BME280;61691;53.072;6.582;2023-11-21T00:19:32;100979.44;;;9.97;87.59
73457;BME280;61691;53.072;6.582;2023-11-21T00:22:02;100970.94;;;9.82;87.74
73457;BME280;61691;53.072;6.582;2023-11-21T00:24:29;100982.31;;;9.94;87.48
73457;BME280;61691;53.072;6.582;2023-11-21T00:26:56;100969.03;;;9.84;87.89
73457;BME280;61691;53.072;6.582;2023-11-21T00:29:22;100956.41;;;9.77;87.95
73457;BME280;61691;53.072;6.582;2023-11-21T00:31:49;100988.84;;;9.90;87.79
73457;BME280;61691;53.072;6.582;2023-11-21T00:34:16;100963.25;;;9.79;87.66
73457;BME280;61691;53.072;6.582;2023-11-21T00:36:42;100983.78;;;9.87;87.82
73457;BME280;61691;53.072;6.582;2023-11-21T00:39:09;100980.47;;;9.85;87.65
73457;BME280;61691;53.072;6.582;2023-11-21T00:41:38;100980.69;;;9.82;87.76
73457;BME280;61691;53.072;6.582;2023-11-21T00:44:05;100971.56;;;9.75;87.62
73457;BME280;61691;53.072;6.582;2023-11-21T00:46:33;100980.69;;;9.82;88.12
73457;BME280;61691;53.072;6.582;2023-11-21T00:48:59;100952.94;;;9.65;87.67
73457;BME280;61691;53.072;6.582;2023-11-21T00:51:26;100988.84;;;9.90;87.83
73457;BME280;61691;53.072;6.582;2023-11-21T00:53:53;100980.69;;;9.82;87.89
73457;BME280;61691;53.072;6.582;2023-11-21T00:56:20;100979.84;;;9.81;88.14
73457;BME280;61691;53.072;6.582;2023-11-21T00:58:47;100996.06;;;9.88;88.08
73457;BME280;61691;53.072;6.582;2023-11-21T01:01:16;100993.41;;;9.88;88.12
73457;BME280;61691;53.072;6.582;2023-11-21T01:07:57;101003.91;;;9.89;88.17
73457;BME280;61691;53.072;6.582;2023-11-21T01:10:24;101011.44;;;9.94;87.87
73457;BME280;61691;53.072;6.582;2023-11-21T01:12:51;100988.25;;;9.86;87.98
73457;BME280;61691;53.072;6.582;2023-11-21T01:15:18;101011.22;;;9.97;88.01
73457;BME280;61691;53.072;6.582;2023-11-21T01:17:44;101006.16;;;9.94;88.09
73457;BME280;61691;53.072;6.582;2023-11-21T01:20:11;101001.13;;;9.91;88.08
73457;BME280;61691;53.072;6.582;2023-11-21T01:22:40;101028.28;;;10.04;87.97
73457;BME280;61691;53.072;6.582;2023-11-21T01:25:07;101018.69;;;9.92;88.28
73457;BME280;61691;53.072;6.582;2023-11-21T01:27:34;101015.31;;;9.90;88.44
73457;BME280;61691;53.072;6.582;2023-11-21T01:30:02;101032.41;;;9.97;88.44
73457;BME280;61691;53.072;6.582;2023-11-21T01:32:29;101041.31;;;9.96;88.29
73457;BME280;61691;53.072;6.582;2023-11-21T01:34:55;101057.53;;;10.02;88.27
73457;BME280;61691;53.072;6.582;2023-11-21T01:37:22;101059.34;;;10.02;88.31
73457;BME280;61691;53.072;6.582;2023-11-21T01:39:49;101065.13;;;10.07;88.61
73457;BME280;61691;53.072;6.582;2023-11-21T01:42:16;101046.59;;;9.96;88.39
73457;BME280;61691;53.072;6.582;2023-11-21T01:44:42;101064.84;;;10.10;88.56
73457;BME280;61691;53.072;6.582;2023-11-21T01:47:10;101050.31;;;10.04;88.33
73457;BME280;61691;53.072;6.582;2023-11-21T01:49:37;101050.44;;;10.03;88.79
73457;BME280;61691;53.072;6.582;2023-11-21T01:52:04;101053.91;;;10.03;88.90
73457;BME280;61691;53.072;6.582;2023-11-21T01:54:33;101065.13;;;10.07;88.66
73457;BME280;61691;53.072;6.582;2023-11-21T01:57:00;101079.91;;;10.09;88.74
73457;BME280;61691;53.072;6.582;2023-11-21T01:59:37;101072.47;;;10.03;89.10
73457;BME280;61691;53.072;6.582;2023-11-21T02:02:07;101070.41;;;10.07;89.26
73457;BME280;61691;53.072;6.582;2023-11-21T02:04:35;101083.16;;;10.13;89.00
73457;BME280;61691;53.072;6.582;2023-11-21T02:07:03;101085.06;;;10.11;89.06
73457;BME280;61691;53.072;6.582;2023-11-21T02:09:32;101084.00;;;10.14;88.95
73457;BME280;61691;53.072;6.582;2023-11-21T02:12:00;101091.78;;;10.15;89.22
73457;BME280;61691;53.072;6.582;2023-11-21T02:14:27;101093.47;;;10.16;89.16
73457;BME280;61691;53.072;6.582;2023-11-21T02:16:54;101099.53;;;10.18;89.39
73457;BME280;61691;53.072;6.582;2023-11-21T02:19:23;101096.88;;;10.18;89.19
73457;BME280;61691;53.072;6.582;2023-11-21T02:21:52;101105.44;;;10.22;89.23
73457;BME280;61691;53.072;6.582;2023-11-21T02:24:20;101112.38;;;10.23;89.38
73457;BME280;61691;53.072;6.582;2023-11-21T02:26:48;101111.81;;;10.19;89.16
73457;BME280;61691;53.072;6.582;2023-11-21T02:29:18;101093.88;;;10.12;89.49
73457;BME280;61691;53.072;6.582;2023-11-21T02:31:51;101119.13;;;10.27;89.47
73457;BME280;61691;53.072;6.582;2023-11-21T02:34:18;101118.28;;;10.26;89.60
73457;BME280;61691;53.072;6.582;2023-11-21T02:36:45;101094.94;;;10.09;89.24
73457;BME280;61691;53.072;6.582;2023-11-21T02:39:12;101120.47;;;10.21;89.24
73457;BME280;61691;53.072;6.582;2023-11-21T02:41:40;101128.88;;;10.26;89.39
73457;BME280;61691;53.072;6.582;2023-11-21T02:44:06;101117.22;;;10.18;89.28
73457;BME280;61691;53.072;6.582;2023-11-21T02:46:34;101133.94;;;10.29;89.51
73457;BME280;61691;53.072;6.582;2023-11-21T02:49:04;101122.41;;;10.19;89.59
73457;BME280;61691;53.072;6.582;2023-11-21T02:51:33;101116.25;;;10.19;89.58
73457;BME280;61691;53.072;6.582;2023-11-21T02:54:00;101052.91;;;9.84;89.53
73457;BME280;61691;53.072;6.582;2023-11-21T02:56:29;101122.97;;;10.23;89.66
73457;BME280;61691;53.072;6.582;2023-11-21T02:58:56;101119.13;;;10.27;89.64
73457;BME280;61691;53.072;6.582;2023-11-21T03:01:23;101117.69;;;10.23;89.78
73457;BME280;61691;53.072;6.582;2023-11-21T03:03:54;101116.25;;;10.19;89.56
73457;BME280;61691;53.072;6.582;2023-11-21T03:06:22;101121.19;;;10.23;89.65
73457;BME280;61691;53.072;6.582;2023-11-21T03:08:49;101100.25;;;10.09;89.66
73457;BME280;61691;53.072;6.582;2023-11-21T03:11:15;101109.75;;;10.12;89.89
73457;BME280;61691;53.072;6.582;2023-11-21T03:13:42;101135.88;;;10.27;89.86
73457;BME280;61691;53.072;6.582;2023-11-21T03:16:09;101140.22;;;10.28;89.72
73457;BME280;61691;53.072;6.582;2023-11-21T03:18:39;101143.09;;;10.25;89.76
73457;BME280;61691;53.072;6.582;2023-11-21T03:21:06;101146.00;;;10.22;89.80
73457;BME280;61691;53.072;6.582;2023-11-21T03:23:37;101148.41;;;10.25;90.11
73457;BME280;61691;53.072;6.582;2023-11-21T03:26:04;101146.97;;;10.21;89.98
73457;BME280;61691;53.072;6.582;2023-11-21T03:28:30;101158.28;;;10.23;89.50
73457;BME280;61691;53.072;6.582;2023-11-21T03:30:57;101165.13;;;10.26;89.89
73457;BME280;61691;53.072;6.582;2023-11-21T03:33:24;101164.28;;;10.25;89.86
73457;BME280;61691;53.072;6.582;2023-11-21T03:35:50;101159.50;;;10.19;89.75
73457;BME280;61691;53.072;6.582;2023-11-21T03:38:19;101170.94;;;10.20;90.09
73457;BME280;61691;53.072;6.582;2023-11-21T03:40:47;101170.09;;;10.19;90.01
73457;BME280;61691;53.072;6.582;2023-11-21T03:43:14;101159.13;;;10.13;89.87
73457;BME280;61691;53.072;6.582;2023-11-21T03:45:41;101177.94;;;10.21;89.95
73457;BME280;61691;53.072;6.582;2023-11-21T03:48:08;101182.63;;;10.17;89.94
73457;BME280;61691;53.072;6.582;2023-11-21T03:50:35;101164.06;;;10.06;90.34
73457;BME280;61691;53.072;6.582;2023-11-21T03:53:02;101180.91;;;10.16;89.67
73457;BME280;61691;53.072;6.582;2023-11-21T03:55:30;101145.19;;;9.88;90.04
73457;BME280;61691;53.072;6.582;2023-11-21T03:57:58;101164.81;;;9.97;90.06
73457;BME280;61691;53.072;6.582;2023-11-21T04:00:25;101191.75;;;10.13;90.29
73457;BME280;61691;53.072;6.582;2023-11-21T04:02:55;101186.47;;;10.13;90.12
73457;BME280;61691;53.072;6.582;2023-11-21T04:05:23;101191.75;;;10.13;90.02
73457;BME280;61691;53.072;6.582;2023-11-21T04:07:50;101156.13;;;9.95;90.43
73457;BME280;61691;53.072;6.582;2023-11-21T04:10:19;101196.94;;;10.15;90.20
73457;BME280;61691;53.072;6.582;2023-11-21T04:12:46;101207.19;;;10.19;90.02
73457;BME280;61691;53.072;6.582;2023-11-21T04:15:13;101211.25;;;10.12;89.94
73457;BME280;61691;53.072;6.582;2023-11-21T04:17:41;101217.28;;;10.14;90.63
73457;BME280;61691;53.072;6.582;2023-11-21T04:20:09;101222.44;;;10.16;90.28
73457;BME280;61691;53.072;6.582;2023-11-21T04:22:37;101138.34;;;9.63;90.31
73457;BME280;61691;53.072;6.582;2023-11-21T04:25:11;101202.72;;;9.97;90.31
73457;BME280;61691;53.072;6.582;2023-11-21T04:27:40;101203.47;;;9.99;90.47
73457;BME280;61691;53.072;6.582;2023-11-21T04:30:07;101225.69;;;10.08;90.58
73457;BME280;61691;53.072;6.582;2023-11-21T04:32:35;101243.06;;;10.12;90.43
73457;BME280;61691;53.072;6.582;2023-11-21T04:35:02;101225.94;;;9.94;90.15
73457;BME280;61691;53.072;6.582;2023-11-21T04:37:30;101223.56;;;9.91;90.31
73457;BME280;61691;53.072;6.582;2023-11-21T04:39:57;101256.06;;;10.04;90.71
73457;BME280;61691;53.072;6.582;2023-11-21T04:42:23;101251.84;;;10.01;90.40
73457;BME280;61691;53.072;6.582;2023-11-21T04:44:50;101246.44;;;9.92;90.33
73457;BME280;61691;53.072;6.582;2023-11-21T04:47:18;101272.44;;;9.98;90.48
73457;BME280;61691;53.072;6.582;2023-11-21T04:49:46;101269.28;;;9.93;90.68
73457;BME280;61691;53.072;6.582;2023-11-21T04:52:16;101283.13;;;9.96;90.43
73457;BME280;61691;53.072;6.582;2023-11-21T04:54:42;101271.34;;;9.89;90.68
73457;BME280;61691;53.072;6.582;2023-11-21T04:57:09;101288.31;;;9.98;90.89
73457;BME280;61691;53.072;6.582;2023-11-21T04:59:36;101290.97;;;9.98;90.95
73457;BME280;61691;53.072;6.582;2023-11-21T05:02:02;101224.75;;;9.53;91.02
73457;BME280;61691;53.072;6.582;2023-11-21T05:04:29;101262.78;;;9.75;90.88
73457;BME280;61691;53.072;6.582;2023-11-21T05:06:56;101307.56;;;10.00;90.94
73457;BME280;61691;53.072;6.582;2023-11-21T05:09:23;101289.63;;;9.92;91.05
73457;BME280;61691;53.072;6.582;2023-11-21T05:11:50;101320.22;;;10.07;90.56
73457;BME280;61691;53.072;6.582;2023-11-21T05:14:16;101317.94;;;10.03;90.71
73457;BME280;61691;53.072;6.582;2023-11-21T05:16:45;101329.38;;;10.03;90.99
73457;BME280;61691;53.072;6.582;2023-11-21T05:19:12;101332.63;;;9.96;91.16
73457;BME280;61691;53.072;6.582;2023-11-21T05:21:39;101352.59;;;10.00;91.02
73457;BME280;61691;53.072;6.582;2023-11-21T05:24:06;101325.13;;;9.79;91.12
73457;BME280;61691;53.072;6.582;2023-11-21T05:26:33;101352.09;;;9.95;91.29
73457;BME280;61691;53.072;6.582;2023-11-21T05:29:00;101363.66;;;9.94;91.16
73457;BME280;61691;53.072;6.582;2023-11-21T05:31:27;101361.25;;;9.91;91.30
73457;BME280;61691;53.072;6.582;2023-11-21T05:33:53;101376.69;;;9.97;91.12
73457;BME280;61691;53.072;6.582;2023-11-21T05:36:20;101362.56;;;9.85;91.39
73457;BME280;61691;53.072;6.582;2023-11-21T05:38:47;101375.22;;;9.93;91.62
73457;BME280;61691;53.072;6.582;2023-11-21T05:41:15;101384.16;;;9.92;91.33
73457;BME280;61691;53.072;6.582;2023-11-21T05:43:41;101378.34;;;9.87;91.48
73457;BME280;61691;53.072;6.582;2023-11-21T05:46:08;101351.69;;;9.66;91.56
73457;BME280;61691;53.072;6.582;2023-11-21T05:48:35;101396.88;;;9.87;91.68
73457;BME280;61691;53.072;6.582;2023-11-21T05:51:05;101404.59;;;9.90;91.40
73457;BME280;61691;53.072;6.582;2023-11-21T05:53:32;101361.91;;;9.59;92.17
73457;BME280;61691;53.072;6.582;2023-11-21T05:55:59;101407.47;;;9.87;91.67
73457;BME280;61691;53.072;6.582;2023-11-21T05:58:25;101401.78;;;9.80;91.83
73457;BME280;61691;53.072;6.582;2023-11-21T06:00:52;101415.50;;;9.85;91.60
73457;BME280;61691;53.072;6.582;2023-11-21T06:03:19;101424.66;;;9.81;91.99
73457;BME280;61691;53.072;6.582;2023-11-21T06:05:46;101425.50;;;9.82;91.66
73457;BME280;61691;53.072;6.582;2023-11-21T06:08:12;101379.38;;;9.38;91.58
73457;BME280;61691;53.072;6.582;2023-11-21T06:10:39;101437.72;;;9.71;92.28
73457;BME280;61691;53.072;6.582;2023-11-21T06:13:06;101440.63;;;9.68;92.31
73457;BME280;61691;53.072;6.582;2023-11-21T06:15:34;101448.56;;;9.68;92.34
73457;BME280;61691;53.072;6.582;2023-11-21T06:18:01;101428.19;;;9.58;92.00
73457;BME280;61691;53.072;6.582;2023-11-21T06:20:27;101450.00;;;9.61;92.14
73457;BME280;61691;53.072;6.582;2023-11-21T06:22:54;101425.16;;;9.51;92.30
73457;BME280;61691;53.072;6.582;2023-11-21T06:25:21;101441.53;;;9.56;92.42
73457;BME280;61691;53.072;6.582;2023-11-21T06:27:48;101465.88;;;9.61;92.70
73457;BME280;61691;53.072;6.582;2023-11-21T06:30:15;101439.53;;;9.47;92.48
73457;BME280;61691;53.072;6.582;2023-11-21T06:32:43;101464.19;;;9.60;92.62
73457;BME280;61691;53.072;6.582;2023-11-21T06:35:13;101482.34;;;9.65;92.39
73457;BME280;61691;53.072;6.582;2023-11-21T06:37:43;101484.16;;;9.64;92.29
73457;BME280;61691;53.072;6.582;2023-11-21T06:40:16;101487.03;;;9.61;92.35
73457;BME280;61691;53.072;6.582;2023-11-21T06:42:45;101490.19;;;9.66;92.90
73457;BME280;61691;53.072;6.582;2023-11-21T06:45:13;101488.22;;;9.57;92.64
73457;BME280;61691;53.072;6.582;2023-11-21T06:47:41;101497.38;;;9.64;92.69
73457;BME280;61691;53.072;6.582;2023-11-21T06:50:09;101498.97;;;9.67;92.93
73457;BME280;61691;53.072;6.582;2023-11-21T06:52:36;101470.75;;;9.55;92.79
73457;BME280;61691;53.072;6.582;2023-11-21T06:55:03;101487.75;;;9.63;93.01
73457;BME280;61691;53.072;6.582;2023-11-21T06:57:31;101497.38;;;9.64;92.78
73457;BME280;61691;53.072;6.582;2023-11-21T06:59:57;101496.78;;;9.61;92.60
73457;BME280;61691;53.072;6.582;2023-11-21T07:02:24;101507.03;;;9.65;92.44
73457;BME280;61691;53.072;6.582;2023-11-21T07:04:51;101467.25;;;9.30;92.74
73457;BME280;61691;53.072;6.582;2023-11-21T07:07:18;101540.00;;;9.61;92.86
73457;BME280;61691;53.072;6.582;2023-11-21T07:09:45;101516.75;;;9.41;92.85
73457;BME280;61691;53.072;6.582;2023-11-21T07:12:12;101523.97;;;9.39;92.95
73457;BME280;61691;53.072;6.582;2023-11-21T07:14:40;101553.97;;;9.51;92.83
73457;BME280;61691;53.072;6.582;2023-11-21T07:17:10;101536.44;;;9.37;93.14
73457;BME280;61691;53.072;6.582;2023-11-21T07:19:38;101541.84;;;9.36;92.90
73457;BME280;61691;53.072;6.582;2023-11-21T07:22:05;101571.34;;;9.42;93.32
73457;BME280;61691;53.072;6.582;2023-11-21T07:24:32;101558.56;;;9.36;93.10
73457;BME280;61691;53.072;6.582;2023-11-21T07:26:59;101561.66;;;9.30;92.78
73457;BME280;61691;53.072;6.582;2023-11-21T07:29:26;101557.00;;;9.21;93.09
73457;BME280;61691;53.072;6.582;2023-11-21T07:31:53;101572.69;;;9.24;93.27
73457;BME280;61691;53.072;6.582;2023-11-21T07:34:20;101439.72;;;8.47;93.30
73457;BME280;61691;53.072;6.582;2023-11-21T07:36:48;101591.59;;;9.30;93.41
73457;BME280;61691;53.072;6.582;2023-11-21T07:39:14;101550.16;;;9.06;93.05
73457;BME280;61691;53.072;6.582;2023-11-21T07:41:43;101588.75;;;9.21;93.52
73457;BME280;61691;53.072;6.582;2023-11-21T07:44:16;101553.22;;;9.00;93.51
73457;BME280;61691;53.072;6.582;2023-11-21T07:46:47;101609.28;;;9.30;93.30
73457;BME280;61691;53.072;6.582;2023-11-21T07:49:16;101592.59;;;9.17;93.47
73457;BME280;61691;53.072;6.582;2023-11-21T07:51:47;101613.72;;;9.29;93.21
73457;BME280;61691;53.072;6.582;2023-11-21T07:54:14;101615.22;;;9.21;93.12
73457;BME280;61691;53.072;6.582;2023-11-21T07:56:41;101612.91;;;9.16;92.95
73457;BME280;61691;53.072;6.582;2023-11-21T07:59:07;101631.50;;;9.27;93.43
73457;BME280;61691;53.072;6.582;2023-11-21T08:01:34;101627.50;;;9.22;92.77
73457;BME280;61691;53.072;6.582;2023-11-21T08:04:01;101630.97;;;9.22;92.96
73457;BME280;61691;53.072;6.582;2023-11-21T08:06:30;101634.16;;;9.15;93.41
73457;BME280;61691;53.072;6.582;2023-11-21T08:08:58;101650.13;;;9.13;92.85
73457;BME280;61691;53.072;6.582;2023-11-21T08:11:25;101661.56;;;9.14;92.81
73457;BME280;61691;53.072;6.582;2023-11-21T08:13:52;101664.81;;;9.05;93.16
73457;BME280;61691;53.072;6.582;2023-11-21T08:16:21;101625.78;;;8.70;93.24
73457;BME280;61691;53.072;6.582;2023-11-21T08:18:48;101671.72;;;8.95;92.89
73457;BME280;61691;53.072;6.582;2023-11-21T08:21:14;101676.66;;;8.86;93.47
73457;BME280;61691;53.072;6.582;2023-11-21T08:23:41;101694.66;;;8.94;93.32
73457;BME280;61691;53.072;6.582;2023-11-21T08:26:08;101685.03;;;8.93;93.44
73457;BME280;61691;53.072;6.582;2023-11-21T08:28:35;101692.13;;;8.92;93.48
73457;BME280;61691;53.072;6.582;2023-11-21T08:31:02;101692.31;;;8.89;93.61
73457;BME280;61691;53.072;6.582;2023-11-21T08:33:29;101699.59;;;8.86;93.42
73457;BME280;61691;53.072;6.582;2023-11-21T08:35:56;101711.47;;;8.93;93.44
73457;BME280;61691;53.072;6.582;2023-11-21T08:38:23;101705.75;;;8.86;93.42
73457;BME280;61691;53.072;6.582;2023-11-21T08:40:50;101704.06;;;8.85;93.49
73457;BME280;61691;53.072;6.582;2023-11-21T08:43:17;101707.19;;;8.78;93.24
73457;BME280;61691;53.072;6.582;2023-11-21T08:45:46;101736.13;;;8.93;93.22
73457;BME280;61691;53.072;6.582;2023-11-21T08:48:13;101701.91;;;8.78;93.38
73457;BME280;61691;53.072;6.582;2023-11-21T08:50:40;101725.91;;;8.87;93.35
73457;BME280;61691;53.072;6.582;2023-11-21T08:53:07;101730.91;;;8.92;93.24
73457;BME280;61691;53.072;6.582;2023-11-21T08:55:34;101727.13;;;8.96;93.21
73457;BME280;61691;53.072;6.582;2023-11-21T08:58:04;101739.38;;;8.97;92.78
73457;BME280;61691;53.072;6.582;2023-11-21T09:00:32;101745.00;;;8.92;92.65
73457;BME280;61691;53.072;6.582;2023-11-21T09:03:01;101714.47;;;8.74;92.01
73457;BME280;61691;53.072;6.582;2023-11-21T09:05:29;101743.81;;;8.84;92.23
73457;BME280;61691;53.072;6.582;2023-11-21T09:07:56;101755.00;;;8.87;92.24
73457;BME280;61691;53.072;6.582;2023-11-21T09:10:23;101763.41;;;8.94;92.19
73457;BME280;61691;53.072;6.582;2023-11-21T09:12:52;101764.44;;;8.91;91.76
73457;BME280;61691;53.072;6.582;2023-11-21T09:15:19;101762.84;;;8.89;91.90
73457;BME280;61691;53.072;6.582;2023-11-21T09:17:47;101766.34;;;8.89;91.76
73457;BME280;61691;53.072;6.582;2023-11-21T09:20:14;101785.50;;;8.93;91.46
73457;BME280;61691;53.072;6.582;2023-11-21T09:22:42;101778.81;;;8.87;91.00
73457;BME280;61691;53.072;6.582;2023-11-21T09:25:08;101785.78;;;8.88;91.36
73457;BME280;61691;53.072;6.582;2023-11-21T09:27:35;101788.31;;;8.77;91.10
73457;BME280;61691;53.072;6.582;2023-11-21T09:30:02;101789.66;;;8.70;90.62
73457;BME280;61691;53.072;6.582;2023-11-21T09:32:31;101807.66;;;8.78;91.10
73457;BME280;61691;53.072;6.582;2023-11-21T09:34:58;101807.22;;;8.71;90.84
73457;BME280;61691;53.072;6.582;2023-11-21T09:37:25;101795.34;;;8.64;90.67
73457;BME280;61691;53.072;6.582;2023-11-21T09:39:53;101817.66;;;8.73;91.00
73457;BME280;61691;53.072;6.582;2023-11-21T09:42:36;101821.16;;;8.73;90.84
73457;BME280;61691;53.072;6.582;2023-11-21T09:45:28;101834.72;;;8.81;90.75
73457;BME280;61691;53.072;6.582;2023-11-21T09:47:56;101830.19;;;8.83;90.93
73457;BME280;61691;53.072;6.582;2023-11-21T09:50:24;101835.19;;;8.88;90.99
73457;BME280;61691;53.072;6.582;2023-11-21T09:53:13;101826.72;;;8.83;90.46
73457;BME280;61691;53.072;6.582;2023-11-21T09:55:44;101843.88;;;8.90;89.94
73457;BME280;61691;53.072;6.582;2023-11-21T09:58:12;101809.09;;;8.69;89.85
73457;BME280;61691;53.072;6.582;2023-11-21T10:00:47;101823.06;;;8.71;89.13
73457;BME280;61691;53.072;6.582;2023-11-21T10:03:15;101858.69;;;8.92;89.41
73457;BME280;61691;53.072;6.582;2023-11-21T10:05:43;101864.16;;;8.89;88.48
73457;BME280;61691;53.072;6.582;2023-11-21T10:08:12;101848.88;;;8.80;88.95
73457;BME280;61691;53.072;6.582;2023-11-21T10:10:44;101861.16;;;8.81;88.38
73457;BME280;61691;53.072;6.582;2023-11-21T10:13:13;101852.59;;;8.78;88.41
73457;BME280;61691;53.072;6.582;2023-11-21T10:15:44;101885.72;;;8.83;87.17
73457;BME280;61691;53.072;6.582;2023-11-21T10:18:15;101887.44;;;8.84;87.09
73457;BME280;61691;53.072;6.582;2023-11-21T10:20:43;101887.44;;;8.84;86.65
73457;BME280;61691;53.072;6.582;2023-11-21T10:23:13;101888.47;;;8.82;86.50
73457;BME280;61691;53.072;6.582;2023-11-21T10:25:42;101905.53;;;8.90;86.60
73457;BME280;61691;53.072;6.582;2023-11-21T10:28:09;101911.38;;;8.96;86.85
73457;BME280;61691;53.072;6.582;2023-11-21T10:30:38;101909.50;;;8.98;87.28
73457;BME280;61691;53.072;6.582;2023-11-21T10:33:05;101905.13;;;8.97;86.80
73457;BME280;61691;53.072;6.582;2023-11-21T10:38:08;101927.31;;;9.08;85.54
73457;BME280;61691;53.072;6.582;2023-11-21T10:40:40;101926.88;;;9.02;84.66
73457;BME280;61691;53.072;6.582;2023-11-21T10:43:09;101902.44;;;8.84;84.74
73457;BME280;61691;53.072;6.582;2023-11-21T10:45:39;101924.72;;;8.94;84.10
73457;BME280;61691;53.072;6.582;2023-11-21T10:48:07;101906.59;;;8.74;84.29
73457;BME280;61691;53.072;6.582;2023-11-21T10:50:35;101907.28;;;8.77;84.29
73457;BME280;61691;53.072;6.582;2023-11-21T10:53:05;101916.13;;;8.76;83.56
73457;BME280;61691;53.072;6.582;2023-11-21T10:55:33;101929.28;;;8.78;82.87
73457;BME280;61691;53.072;6.582;2023-11-21T10:58:04;101916.31;;;8.73;82.87
73457;BME280;61691;53.072;6.582;2023-11-21T11:00:33;101912.00;;;8.58;83.15
73457;BME280;61691;53.072;6.582;2023-11-21T11:03:00;101942.41;;;8.79;83.37
73457;BME280;61691;53.072;6.582;2023-11-21T11:05:29;101947.09;;;8.88;83.46
73457;BME280;61691;53.072;6.582;2023-11-21T11:08:00;101935.03;;;8.84;83.02
73457;BME280;61691;53.072;6.582;2023-11-21T11:10:31;101912.81;;;8.73;82.63
73457;BME280;61691;53.072;6.582;2023-11-21T11:12:59;101942.06;;;8.98;82.51
73457;BME280;61691;53.072;6.582;2023-11-21T11:15:26;101942.75;;;9.02;82.32
73457;BME280;61691;53.072;6.582;2023-11-21T11:17:54;101949.53;;;9.06;81.98
73457;BME280;61691;53.072;6.582;2023-11-21T11:20:34;101956.91;;;9.01;81.98
73457;BME280;61691;53.072;6.582;2023-11-21T11:23:46;101948.41;;;8.96;80.45
73457;BME280;61691;53.072;6.582;2023-11-21T11:29:27;101933.03;;;8.74;79.72
73457;BME280;61691;53.072;6.582;2023-11-21T11:32:16;101949.19;;;8.83;80.58
73457;BME280;61691;53.072;6.582;2023-11-21T11:34:53;101956.63;;;8.91;80.62
73457;BME280;61691;53.072;6.582;2023-11-21T11:37:24;101965.72;;;8.87;80.04
73457;BME280;61691;53.072;6.582;2023-11-21T11:39:51;101953.91;;;8.78;80.02
73457;BME280;61691;53.072;6.582;2023-11-21T11:42:18;101972.03;;;8.84;79.97
73457;BME280;61691;53.072;6.582;2023-11-21T11:44:47;101976.94;;;8.90;79.79
73457;BME280;61691;53.072;6.582;2023-11-21T11:47:29;101990.91;;;8.92;79.92
73457;BME280;61691;53.072;6.582;2023-11-21T11:52:46;101977.88;;;8.89;79.19
73457;BME280;61691;53.072;6.582;2023-11-21T11:55:14;101997.53;;;9.00;78.67
73457;BME280;61691;53.072;6.582;2023-11-21T11:57:49;102013.00;;;9.06;78.39
73457;BME280;61691;53.072;6.582;2023-11-21T12:00:43;101999.41;;;8.98;77.79
73457;BME280;61691;53.072;6.582;2023-11-21T12:03:13;102015.94;;;9.01;77.40
73457;BME280;61691;53.072;6.582;2023-11-21T12:05:40;102016.97;;;8.99;77.73
73457;BME280;61691;53.072;6.582;2023-11-21T12:08:09;102022.09;;;9.02;77.48
73457;BME280;61691;53.072;6.582;2023-11-21T12:10:38;102027.38;;;9.02;77.24
73457;BME280;61691;53.072;6.582;2023-11-21T12:13:08;101990.81;;;8.80;76.78
73457;BME280;61691;53.072;6.582;2023-11-21T12:15:36;102017.16;;;8.81;76.06
73457;BME280;61691;53.072;6.582;2023-11-21T12:18:04;102029.34;;;8.84;76.48
73457;BME280;61691;53.072;6.582;2023-11-21T12:20:32;102032.84;;;8.84;76.06
73457;BME280;61691;53.072;6.582;2023-11-21T12:23:05;102024.84;;;8.72;76.34
73457;BME280;61691;53.072;6.582;2023-11-21T12:25:32;102042.38;;;8.73;76.25
73457;BME280;61691;53.072;6.582;2023-11-21T12:28:00;102042.88;;;8.79;76.61
73457;BME280;61691;53.072;6.582;2023-11-21T12:30:29;102060.78;;;8.88;75.93
73457;BME280;61691;53.072;6.582;2023-11-21T12:33:00;102045.22;;;8.84;75.92
73457;BME280;61691;53.072;6.582;2023-11-21T12:35:32;102052.69;;;8.91;75.72
73457;BME280;61691;53.072;6.582;2023-11-21T12:38:03;102050.50;;;8.84;75.64
73457;BME280;61691;53.072;6.582;2023-11-21T12:40:31;102027.19;;;8.76;75.32
73457;BME280;61691;53.072;6.582;2023-11-21T12:43:00;102062.69;;;8.86;74.67
73457;BME280;61691;53.072;6.582;2023-11-21T12:45:28;102052.84;;;8.74;74.88
73457;BME280;61691;53.072;6.582;2023-11-21T12:47:59;102057.97;;;8.77;74.84
73457;BME280;61691;53.072;6.582;2023-11-21T12:50:29;102047.84;;;8.70;74.74
73457;BME280;61691;53.072;6.582;2023-11-21T12:53:07;102063.34;;;8.76;74.98
73457;BME280;61691;53.072;6.582;2023-11-21T12:55:39;102002.78;;;8.43;74.66
73457;BME280;61691;53.072;6.582;2023-11-21T12:58:08;102069.47;;;8.76;74.76
73457;BME280;61691;53.072;6.582;2023-11-21T13:00:40;102071.34;;;8.74;74.21
73457;BME280;61691;53.072;6.582;2023-11-21T13:03:10;102078.53;;;8.72;74.68
73457;BME280;61691;53.072;6.582;2023-11-21T13:05:40;102083.81;;;8.72;74.73
73457;BME280;61691;53.072;6.582;2023-11-21T13:08:14;102066.81;;;8.62;74.61
73457;BME280;61691;53.072;6.582;2023-11-21T13:10:50;102080.59;;;8.67;74.46
73457;BME280;61691;53.072;6.582;2023-11-21T13:13:17;102077.19;;;8.65;74.47
73457;BME280;61691;53.072;6.582;2023-11-21T13:16:08;102092.13;;;8.66;74.13
73457;BME280;61691;53.072;6.582;2023-11-21T13:18:35;102091.38;;;8.64;74.44